Terminal Aerodrome Forecast
Issued by NWS

Home | Current Version | Previous Version | Graphics & Text | Print | Product List | Glossary On
Versions: 1 2 3 4 5 6 7 8 9 10 11 12 13 14 15 16 17 18 19 20
000
FTUS43 KGRB 041900 AAA
TAFAUW
TAF AMD
KAUW 041936Z 0420/0518 29013G22KT P6SM SCT040
      TEMPO 0420/0422 BKN040
     FM050000 30005KT P6SM SKC
     FM051700 27009G14KT P6SM SKC=

USA.gov is the U.S. government's official web portal to all federal, state and local government web resources and services.